Nearby METAR Reports

Sorted by Distance from Carson Valley Weather Station - Minden, Nevada

 

KMEV - Minden, Nevada, USA
Distance from station: SSW 3mi, 5km
Updated: Wed, 27-Oct-2021 6:35pm PDT
Clear
Clear
 Wind from N
Wind: N 7 mph , 11 km/h
Temperature: 55°F , 13°C
Dew Point: 46°F , 8°C
Humidity: 72%
Barometer: 30.38 inHg , 1028.8 hPa
Clouds: Clear
Visibility: 10 miles , 16 km
2021/10/28 01:35 KMEV 280135Z AUTO 35006KT 10SM CLR 13/08 A3038 RMK AO2
KCXP - Carson City, Nevada, USA
Distance from station: N 10mi, 16km
Updated: Wed, 27-Oct-2021 6:35pm PDT
Clear
Clear
 Wind from NNW
Wind: NNW 8 mph , 13 km/h
Temperature: 59°F , 15°C
Dew Point: 45°F , 7°C
Humidity: 59%
Barometer: 30.40 inHg , 1029.5 hPa
Clouds: Clear
Visibility: 10 miles , 16 km
2021/10/28 01:35 KCXP 280135Z AUTO 34007KT 10SM CLR 15/07 A3040 RMK AO2
 
KTVL - South Lake Tahoe, California, USA
Distance from station: WSW 18mi, 29km
Updated: Wed, 27-Oct-2021 6:53pm PDT
Clear
Clear
 Wind from SSE
Wind: SSE 3 mph , 6 km/h
Temperature: 39°F , 4°C
Dew Point: 37°F , 3°C
Humidity: 93%
Barometer: 30.44 inHg , 1030.8 hPa
Clouds: Clear
Visibility: 10 miles , 16 km
2021/10/28 01:53 KTVL 280153Z AUTO 16003KT 10SM CLR 04/03 A3044 RMK AO2 SLP300 T00440028
KTRK - Truckee Tahoe, California, USA
Distance from station: NW 29mi, 46km
Updated: Wed, 27-Oct-2021 6:37pm PDT
Clear
Clear
 Wind from SSE
Wind: SSE 3 mph , 6 km/h
Temperature: 39°F , 4°C
Dew Point: 37°F , 3°C
Humidity: 93%
Barometer: 30.44 inHg , 1030.8 hPa
Clouds: Clear
Visibility: 10 miles , 16 km
2021/10/28 01:37 KTRK 280137Z AUTO 15003KT 10SM CLR 04/03 A3044 RMK AO2
 
KRNO - Reno, Nevada, USA
Distance from station: N 32mi, 51km
Updated: Wed, 27-Oct-2021 5:55pm PDT
Few Clouds
Few Clouds
 Wind from NE
Wind: NE 6 mph , 9 km/h
Temperature: 63°F , 17°C
Dew Point: 45°F , 7°C
Humidity: 52%
Barometer: 30.37 inHg , 1028.4 hPa
Clouds: Few Clouds
Visibility: 10 miles , 16 km
Cloud details: Few Clouds 4800 ft
2021/10/28 00:55 KRNO 280055Z 04005KT 10SM FEW048 17/07 A3037 RMK AO2 SLP263 T01670072
KRTS - Reno/Stead, Nevada, USA
Distance from station: NNW 44mi, 71km
Updated: Wed, 27-Oct-2021 6:35pm PDT
Clear
Clear
 Wind from calm
Wind: Calm
Temperature: 54°F , 12°C
Dew Point: 45°F , 7°C
Humidity: 72%
Barometer: 30.42 inHg , 1030.1 hPa
Clouds: Clear
Visibility: 10 miles , 16 km
2021/10/28 01:35 KRTS 280135Z AUTO 00000KT 10SM CLR 12/07 A3042 RMK AO2
 
KBAN - Bridgeport(Mcmwt, California, USA
Distance from station: SSE 49mi, 79km
Updated: Wed, 27-Oct-2021 6:52pm PDT
Clear
Clear
 Wind from calm
Wind: Calm
Temperature: 46°F , 8°C
Dew Point: 36°F , 2°C
Humidity: 66%
Barometer: 30.43 inHg , 1030.5 hPa
Clouds: Clear
Visibility: 10 miles , 16 km
2021/10/28 01:52 KBAN 280152Z AUTO 00000KT 10SM CLR 08/02 A3043 RMK AO2 SLP292 T00830022 $
KBLU - Emigrant Gap, California, USA
Distance from station: WNW 55mi, 89km
Updated: Wed, 27-Oct-2021 6:52pm PDT
Clear
Clear
 Wind from ENE
Wind: ENE 5 mph , 7 km/h
Temperature: 52°F , 11°C
Dew Point: 45°F , 7°C
Humidity: 77%
Barometer: 30.38 inHg , 1028.8 hPa
Clouds: Clear
Visibility: 10 miles , 16 km
2021/10/28 01:52 KBLU 280152Z AUTO 07004KT 10SM CLR 11/07 A3038 RMK AO2 SLP254 T01110067
 
KPVF - Placerville, California, USA
Distance from station: WSW 60mi, 96km
Updated: Wed, 27-Oct-2021 6:35pm PDT
Clear
Clear
 Wind from calm
Wind: Calm
Temperature: 57°F , 14°C
Dew Point: 50°F , 10°C
Humidity: 77%
Barometer: 30.28 inHg , 1025.4 hPa
Clouds: Clear
Visibility: 10 miles , 16 km
2021/10/28 01:35 KPVF 280135Z AUTO 00000KT 10SM CLR 14/10 A3028 RMK AO1
KNFL - Fallon Nas, Nevada, USA
Distance from station: ENE 61mi, 97km
Updated: Wed, 27-Oct-2021 5:56pm PDT
Partly cloudy
Partly cloudy
 Wind from N
Wind: N 5 mph , 7 km/h
Temperature: 61°F , 16°C
Dew Point: 45°F , 7°C
Humidity: 55%
Barometer: 30.35 inHg , 1027.8 hPa
Clouds: Partly cloudy
Visibility: 10 miles , 16 km
Cloud details: Partly cloudy 5000 ft
Partly cloudy 20000 ft
2021/10/28 00:56 KNFL 280056Z 36004KT 10SM SCT050 SCT200 16/07 A3035 RMK AO2 SLP235 T01610072
 
KHTH - Hawthorne, Nevada, USA
Distance from station: ESE 68mi, 109km
Updated: Wed, 27-Oct-2021 6:35pm PDT
Clear
Clear
 Wind from NW
Wind: NW 6 mph , 9 km/h
Temperature: 59°F , 15°C
Dew Point: 43°F , 6°C
Humidity: 55%
Barometer: 30.37 inHg , 1028.4 hPa
Clouds: Clear
Visibility: 10 miles , 16 km
2021/10/28 01:35 KHTH 280135Z AUTO 31005KT 10SM CLR 15/06 A3037 RMK A01
KGOO - Grass Valley, California, USA
Distance from station: W 70mi, 112km
Updated: Wed, 27-Oct-2021 6:30pm PDT
Clear
Clear
 Wind from N
Wind: N 7 mph , 11 km/h
Temperature: 57°F , 14°C
Dew Point: 50°F , 10°C
Humidity: 77%
Barometer: 30.29 inHg , 1025.7 hPa
Clouds: Clear
Visibility: 10 miles , 16 km
2021/10/28 01:30 KGOO 280130Z AUTO 35006KT 10SM CLR 14/10 A3029 RMK A01
 
KAUN - Auburn Muni, California, USA
Distance from station: W 73mi, 118km
Updated: Wed, 27-Oct-2021 6:35pm PDT
Clear
Clear
 Wind from varies
Wind: varies 3 mph , 6 km/h
Temperature: 63°F , 17°C
Dew Point: 52°F , 11°C
Humidity: 68%
Barometer: 30.26 inHg , 1024.7 hPa
Clouds: Clear
Visibility: 10 miles , 16 km
2021/10/28 01:35 KAUN 280135Z AUTO VRB03KT 10SM CLR 17/11 A3026 RMK A01
KO22 - Columbia, California, USA
Distance from station: SSW 79mi, 127km
Updated: Wed, 27-Oct-2021 6:35pm PDT
Clear
Clear
 Wind from calm
Wind: Calm
Temperature: 61°F , 16°C
Dew Point: 54°F , 12°C
Humidity: 77%
Barometer: 30.24 inHg , 1024 hPa
Clouds: Clear
Visibility: 10 miles , 16 km
2021/10/28 01:35 KO22 280135Z AUTO 00000KT 10SM CLR 16/12 A3024 RMK A01
 
KLHM - Lincoln, California, USA
Distance from station: W 88mi, 141km
Updated: Wed, 27-Oct-2021 6:35pm PDT
Clear
Clear
 Wind from NNW
Wind: NNW 12 mph , 19 km/h, Gust: 17 mph , 28 km/h
Temperature: 63°F , 17°C
Dew Point: 54°F , 12°C
Humidity: 73%
Barometer: 30.23 inHg , 1023.7 hPa
Clouds: Clear
Visibility: 10 miles , 16 km
2021/10/28 01:35 KLHM 280135Z AUTO 34010G15KT 10SM CLR 17/12 A3023 RMK AO1
KBAB - Beale Afb/Marysv, California, USA
Distance from station: W 91mi, 147km
Updated: Wed, 27-Oct-2021 5:58pm PDT
Clear
Clear
 Wind from NNW
Wind: NNW 12 mph , 19 km/h
Temperature: 66°F , 19°C
Dew Point: 55°F , 13°C
Humidity: 68%
Barometer: 30.23 inHg , 1023.7 hPa
Clouds: Clear
Visibility: 10 miles , 16 km
2021/10/28 00:58 KBAB 280058Z 34010KT 10SM CLR 19/13 A3023 RMK AO2A SLP240 T01920131 $
 
KMHR - Mather Field, California, USA
Distance from station: WSW 91mi, 147km
Updated: Wed, 27-Oct-2021 6:35pm PDT
Clear
Clear
 Wind from NNW
Wind: NNW 8 mph , 13 km/h
Temperature: 66°F , 19°C
Dew Point: 57°F , 14°C
Humidity: 73%
Barometer: 30.21 inHg , 1023 hPa
Clouds: Clear
Visibility: 10 miles , 16 km
2021/10/28 01:35 KMHR 280135Z AUTO 34007KT 10SM CLR 19/14 A3021 RMK A01
KLOL - Lovelock, Nevada, USA
Distance from station: NE 94mi, 151km
Updated: Wed, 27-Oct-2021 6:53pm PDT
Clear
Clear
 Wind from NNW
Wind: NNW 3 mph , 6 km/h
Temperature: 55°F , 13°C
Dew Point: 46°F , 8°C
Humidity: 72%
Barometer: 30.36 inHg , 1028.1 hPa
Clouds: Clear
Visibility: 10 miles , 16 km
2021/10/28 01:53 KLOL 280153Z AUTO 34003KT 10SM CLR 13/08 A3036 RMK AO2 SLP273 T01280083
 
KMCC - Mcclellan Afb, California, USA
Distance from station: WSW 94mi, 151km
Updated: Wed, 27-Oct-2021 6:35pm PDT
Clear
Clear
 Wind from NNW
Wind: NNW 8 mph , 13 km/h
Temperature: 66°F , 19°C
Dew Point: 57°F , 14°C
Humidity: 73%
Barometer: 30.23 inHg , 1023.7 hPa
Clouds: Clear
Visibility: 10 miles , 16 km
2021/10/28 01:35 KMCC 280135Z AUTO 33007KT 10SM CLR 19/14 A3023 RMK AO2
KMYV - Marysville, California, USA
Distance from station: W 99mi, 159km
Updated: Wed, 27-Oct-2021 6:53pm PDT
Clear
Clear
 Wind from NNW
Wind: NNW 10 mph , 17 km/h
Temperature: 64°F , 18°C
Dew Point: 54°F , 12°C
Humidity: 68%
Barometer: 30.24 inHg , 1024 hPa
Clouds: Clear
Visibility: 10 miles , 16 km
2021/10/28 01:53 KMYV 280153Z AUTO 33009KT 10SM CLR 18/12 A3024 RMK AO2 SLP244 T01830117
 
KSVE - Susanville Muni, California, USA
Distance from station: NNW 102mi, 164km
Updated: Wed, 27-Oct-2021 6:35pm PDT
Clear
Clear
 Wind from WNW
Wind: WNW 3 mph , 6 km/h
Barometer: 30.37 inHg , 1028.4 hPa
Clouds: Clear
Visibility: 8 miles , 13 km
2021/10/28 01:35 KSVE 280135Z AUTO 29003KT 8SM CLR A3037 RMK AO2
KSAC - Sacramento, California, USA
Distance from station: WSW 103mi, 165km
Updated: Wed, 27-Oct-2021 6:53pm PDT
Clear
Clear
 Wind from NNW
Wind: NNW 9 mph , 15 km/h
Temperature: 64°F , 18°C
Dew Point: 57°F , 14°C
Humidity: 78%
Barometer: 30.23 inHg , 1023.7 hPa
Clouds: Clear
Visibility: 10 miles , 16 km
2021/10/28 01:53 KSAC 280153Z 34008KT 10SM CLR 18/14 A3023 RMK AO2 SLP235 T01830139
 
KSMF - Sacramento/Metro, California, USA
Distance from station: WSW 104mi, 167km
Updated: Wed, 27-Oct-2021 6:53pm PDT
Clear
Clear
 Wind from N
Wind: N 7 mph , 11 km/h
Temperature: 64°F , 18°C
Dew Point: 55°F , 13°C
Humidity: 73%
Barometer: 30.23 inHg , 1023.7 hPa
Clouds: Clear
Visibility: 10 miles , 16 km
2021/10/28 01:53 KSMF 280153Z 35006KT 10SM CLR 18/13 A3023 RMK AO2 SLP235 T01780133
KOVE - Oroville, California, USA
Distance from station: WNW 106mi, 171km
Updated: Wed, 27-Oct-2021 6:53pm PDT
Clear
Clear
 Wind from WNW
Wind: WNW 3 mph , 6 km/h
Temperature: 64°F , 18°C
Dew Point: 54°F , 12°C
Humidity: 68%
Barometer: 30.26 inHg , 1024.7 hPa
Clouds: Clear
Visibility: 10 miles , 16 km
2021/10/28 01:53 KOVE 280153Z AUTO 30003KT 10SM CLR 18/12 A3026 RMK AO2 SLP249 T01830122 TSNO
 
KMMH - Mammoth/June Lak, California, USA
Distance from station: SSE 110mi, 177km
Updated: Wed, 27-Oct-2021 6:36pm PDT
Clear
Clear
 Wind from NW
Wind: NW 3 mph , 6 km/h
Temperature: 48°F , 9°C
Dew Point: 36°F , 2°C
Humidity: 62%
Barometer: 30.46 inHg , 1031.5 hPa
Clouds: Clear
Visibility: 10 miles , 16 km
2021/10/28 01:36 KMMH 280136Z AUTO 31003KT 10SM CLR 09/02 A3046 RMK AO2
KSCK - Stockton, California, USA
Distance from station: SW 114mi, 183km
Updated: Wed, 27-Oct-2021 5:55pm PDT
Clear
Clear
 Wind from NNW
Wind: NNW 10 mph , 17 km/h
Temperature: 66°F , 19°C
Dew Point: 57°F , 14°C
Humidity: 73%
Barometer: 30.21 inHg , 1023 hPa
Clouds: Clear
Visibility: 10 miles , 16 km
2021/10/28 00:55 KSCK 280055Z 33009KT 10SM CLR 19/14 A3021 RMK AO2 SLP230 T01940144
 
KEDU - Davis, California, USA
Distance from station: WSW 116mi, 187km
Updated: Wed, 27-Oct-2021 6:35pm PDT
Clear
Clear
 Wind from N
Wind: N 7 mph , 11 km/h
Temperature: 66°F , 19°C
Dew Point: 57°F , 14°C
Humidity: 73%
Barometer: 30.24 inHg , 1024 hPa
Clouds: Clear
Visibility: 10 miles , 16 km
2021/10/28 01:35 KEDU 280135Z AUTO 35006KT 10SM CLR 19/14 A3024 RMK AO1
KMOD - Modesto, California, USA
Distance from station: SW 119mi, 191km
Updated: Wed, 27-Oct-2021 6:53pm PDT
Clear
Clear
 Wind from NW
Wind: NW 8 mph , 13 km/h
Temperature: 64°F , 18°C
Dew Point: 59°F , 15°C
Humidity: 83%
Barometer: 30.21 inHg , 1023 hPa
Clouds: Clear
Visibility: 10 miles , 16 km
2021/10/28 01:53 KMOD 280153Z 31007KT 10SM CLR 18/15 A3021 RMK AO2 SLP230 T01780150
 
KMER - Merced/Castle Af, California, USA
Distance from station: SSW 123mi, 198km
Updated: Wed, 27-Oct-2021 4:45pm PDT
NOT Current
Clear
Clear
 Wind from NNW
Wind: NNW 5 mph , 7 km/h
Temperature: 72°F , 22°C
Dew Point: 57°F , 14°C
Humidity: 61%
Barometer: 20.23 inHg , 685.1 hPa
Clouds: Clear
Visibility: 10 miles , 16 km
2021/10/27 23:45 KMER 272345Z 33004KT 10SM CLR 22/14 A2023
KCIC - Chico Municipal, California, USA
Distance from station: WNW 124mi, 199km
Updated: Wed, 27-Oct-2021 6:47pm PDT
Few Clouds
Few Clouds
 Wind from NW
Wind: NW 12 mph , 19 km/h
Temperature: 63°F , 17°C
Dew Point: 54°F , 12°C
Humidity: 73%
Barometer: 30.27 inHg , 1025.1 hPa
Clouds: Few Clouds
Visibility: 40 miles , 64 km
Cloud details: Few Clouds 7000 ft
2021/10/28 01:47 KCIC 280147Z 32010KT 40SM FEW070 17/12 A3027
 
KMCE - Merced, California, USA
Distance from station: SSW 128mi, 207km
Updated: Wed, 27-Oct-2021 6:53pm PDT
Clear
Clear
 Wind from SSW
Wind: SSW 5 mph , 7 km/h
Temperature: 64°F , 18°C
Dew Point: 57°F , 14°C
Humidity: 78%
Barometer: 30.22 inHg , 1023.4 hPa
Clouds: Clear
Visibility: 10 miles , 16 km
2021/10/28 01:53 KMCE 280153Z AUTO 21004KT 10SM CLR 18/14 A3022 RMK AO2 SLP233 T01830144
KVCB - Vacaville, California, USA
Distance from station: WSW 128mi, 207km
Updated: Wed, 27-Oct-2021 6:53pm PDT
Clear
Clear
 Wind from N
Wind: N 9 mph , 15 km/h
Temperature: 66°F , 19°C
Dew Point: 57°F , 14°C
Humidity: 73%
Barometer: 30.24 inHg , 1024 hPa
Clouds: Clear
Visibility: 10 miles , 16 km
2021/10/28 01:53 KVCB 280153Z AUTO 35008KT 10SM CLR 19/14 A3024 RMK AO2 SLP239 T01890144
 
KSUU - Travis Afb/Fairf, California, USA
Distance from station: WSW 130mi, 209km
Updated: Wed, 27-Oct-2021 5:58pm PDT
Clear
Clear
 Wind from N
Wind: N 9 mph , 15 km/h
Temperature: 72°F , 22°C
Dew Point: 59°F , 15°C
Humidity: 65%
Barometer: 30.23 inHg , 1023.7 hPa
Clouds: Clear
Visibility: 10 miles , 16 km
2021/10/28 00:58 KSUU 280058Z AUTO 36008KT 10SM CLR 22/15 A3023 RMK AO2 SLP244 T02190148 $
KBIH - Bishop, California, USA
Distance from station: SE 137mi, 221km
Updated: Wed, 27-Oct-2021 5:56pm PDT
Clear
Clear
 Wind from WNW
Wind: WNW 7 mph , 11 km/h
Temperature: 70°F , 21°C
Dew Point: 41°F , 5°C
Humidity: 35%
Barometer: 30.26 inHg , 1024.7 hPa
Clouds: Clear
Visibility: 10 miles , 16 km
2021/10/28 00:56 KBIH 280056Z AUTO 29006KT 10SM CLR 21/05 A3026 RMK AO2 SLP224 T02060050
 
KMAE - Madera, California, USA
Distance from station: S 144mi, 231km
Updated: Wed, 27-Oct-2021 6:53pm PDT
Clear
Clear
 Wind from WSW
Wind: WSW 3 mph , 6 km/h
Temperature: 61°F , 16°C
Dew Point: 55°F , 13°C
Humidity: 83%
Barometer: 30.24 inHg , 1024 hPa
Clouds: Clear
Visibility: 10 miles , 16 km
2021/10/28 01:53 KMAE 280153Z AUTO 24003KT 10SM CLR 16/13 A3024 RMK AO2 SLP239 T01560128
KCCR - Concord, California, USA
Distance from station: WSW 145mi, 233km
Updated: Wed, 27-Oct-2021 6:53pm PDT
Clear
Clear
 Wind from calm
Wind: Calm
Temperature: 68°F , 20°C
Dew Point: 57°F , 14°C
Humidity: 69%
Barometer: 30.23 inHg , 1023.7 hPa
Clouds: Clear
Visibility: 10 miles , 16 km
2021/10/28 01:53 KCCR 280153Z 00000KT 10SM CLR 20/14 A3023 RMK AO2 SLP224 T02000144
 
KLVK - Livermore, California, USA
Distance from station: SW 146mi, 236km
Updated: Wed, 27-Oct-2021 6:53pm PDT
Clear
Clear
 Wind from calm
Wind: Calm
Temperature: 68°F , 20°C
Dew Point: 57°F , 14°C
Humidity: 69%
Barometer: 30.23 inHg , 1023.7 hPa
Clouds: Clear
Visibility: 10 miles , 16 km
2021/10/28 01:53 KLVK 280153Z 00000KT 10SM CLR 20/14 A3023 RMK AO2 SLP232 T02000144
KAPC - Napa, California, USA
Distance from station: WSW 150mi, 241km
Updated: Wed, 27-Oct-2021 5:54pm PDT
Clear
Clear
 Wind from S
Wind: S 5 mph , 7 km/h
Temperature: 70°F , 21°C
Dew Point: 59°F , 15°C
Humidity: 69%
Barometer: 30.23 inHg , 1023.7 hPa
Clouds: Clear
Visibility: 10 miles , 16 km
2021/10/28 00:54 KAPC 280054Z 19004KT 10SM CLR 21/15 A3023 RMK AO2 SLP228 T02060150
 
KRBL - Red Bluff, California, USA
Distance from station: WNW 155mi, 249km
Updated: Wed, 27-Oct-2021 5:54pm PDT
Clear
Clear
 Wind from N
Wind: N 10 mph , 17 km/h
Temperature: 66°F , 19°C
Dew Point: 54°F , 12°C
Humidity: 64%
Barometer: 30.29 inHg , 1025.7 hPa
Clouds: Clear
Visibility: 10 miles , 16 km
2021/10/28 00:54 KRBL 280054Z AUTO 35009KT 10SM CLR 19/12 A3029 RMK AO2 SLP255 T01890117
KFAT - Fresno, California, USA
Distance from station: S 156mi, 251km
Updated: Wed, 27-Oct-2021 6:53pm PDT
Few Clouds
Few Clouds
 Wind from calm
Wind: Calm
Temperature: 66°F , 19°C
Dew Point: 52°F , 11°C
Humidity: 60%
Barometer: 30.23 inHg , 1023.7 hPa
Clouds: Few Clouds
Visibility: 10 miles , 16 km
Cloud details: Few Clouds 20000 ft
2021/10/28 01:53 KFAT 280153Z 00000KT 10SM FEW200 19/11 A3023 RMK AO2 SLP237 T01890106
 
KTPH - Tonopah, Nevada, USA
Distance from station: ESE 158mi, 254km
Updated: Wed, 27-Oct-2021 5:56pm PDT
Clear
Clear
 Wind from NNW
Wind: NNW 18 mph , 30 km/h
Temperature: 57°F , 14°C
Dew Point: 41°F , 5°C
Humidity: 55%
Barometer: 30.34 inHg , 1027.4 hPa
Clouds: Clear
Visibility: 10 miles , 16 km
2021/10/28 00:56 KTPH 280056Z AUTO 33016KT 10SM CLR 14/05 A3034 RMK AO2 SLP244 T01440050
KFCH - Fresno Chandler, California, USA
Distance from station: S 161mi, 258km
Updated: Tue, 17-Aug-2021 5:15am PDT
NOT Current
Overcast
Overcast
 Wind from N
Wind: N 3 mph , 6 km/h
Temperature: 75°F , 24°C
Dew Point: 52°F , 11°C
Humidity: 44%
Barometer: 29.74 inHg , 1007.1 hPa
Clouds: Overcast
Visibility: 10 miles , 16 km
Cloud details: Overcast 4000 ft
2021/08/17 12:15 KFCH 171215Z AUTO 36003KT 10SM OVC040 24/11 A2974 RMK A01
 
KHWD - Hayward, California, USA
Distance from station: SW 161mi, 259km
Updated: Wed, 27-Oct-2021 5:54pm PDT
Clear
Clear
 Wind from WNW
Wind: WNW 7 mph , 11 km/h
Temperature: 72°F , 22°C
Dew Point: 57°F , 14°C
Humidity: 61%
Barometer: 30.22 inHg , 1023.4 hPa
Clouds: Clear
Visibility: 10 miles , 16 km
2021/10/28 00:54 KHWD 280054Z 30006KT 10SM CLR 22/14 A3022 RMK AO2 SLP240 T02170144
KOAK - Oakland, California, USA
Distance from station: SW 164mi, 264km
Updated: Wed, 27-Oct-2021 6:53pm PDT
Few Clouds
Few Clouds
 Wind from NW
Wind: NW 8 mph , 13 km/h
Temperature: 66°F , 19°C
Dew Point: 57°F , 14°C
Humidity: 73%
Barometer: 30.23 inHg , 1023.7 hPa
Clouds: Few Clouds
Visibility: 10 miles , 16 km
Cloud details: Few Clouds 1000 ft
2021/10/28 01:53 KOAK 280153Z 32007KT 10SM FEW010 19/14 A3023 RMK AO2 SLP238 T01890139
 
KWMC - Winnemucca, Nevada, USA
Distance from station: NE 164mi, 264km
Updated: Wed, 27-Oct-2021 5:56pm PDT
Clear
Clear
 Wind from SW
Wind: SW 5 mph , 7 km/h
Temperature: 55°F , 13°C
Dew Point: 45°F , 7°C
Humidity: 67%
Barometer: 30.35 inHg , 1027.8 hPa
Clouds: Clear
Visibility: 10 miles , 16 km
2021/10/28 00:56 KWMC 280056Z AUTO 23004KT 10SM CLR 13/07 A3035 RMK AO2 SLP260 T01330067
KDVO - Novato/Gnoss Fld, California, USA
Distance from station: WSW 165mi, 265km
Updated: Wed, 27-Oct-2021 6:35pm PDT
Clear
Clear
 Wind from N
Wind: N 7 mph , 11 km/h
Temperature: 66°F , 19°C
Dew Point: 61°F , 16°C
Humidity: 83%
Barometer: 30.24 inHg , 1024 hPa
Clouds: Clear
Visibility: 10 miles , 16 km
2021/10/28 01:35 KDVO 280135Z AUTO 35006KT 10SM CLR 19/16 A3024 RMK AO2
 
KO69 - Petaluma, California, USA
Distance from station: WSW 165mi, 265km
Updated: Wed, 27-Oct-2021 6:30pm PDT
Clear
Clear
 Wind from W
Wind: W 3 mph , 6 km/h
Temperature: 64°F , 18°C
Dew Point: 59°F , 15°C
Humidity: 83%
Barometer: 30.25 inHg , 1024.4 hPa
Clouds: Clear
Visibility: 10 miles , 16 km
2021/10/28 01:30 KO69 280130Z AUTO 27003KT 10SM CLR 18/15 A3025 RMK A01
KRHV - San Jose/Reid, California, USA
Distance from station: SW 165mi, 265km
Updated: Wed, 27-Oct-2021 6:47pm PDT
Clear
Clear
 Wind from NW
Wind: NW 6 mph , 9 km/h
Temperature: 66°F , 19°C
Dew Point: 57°F , 14°C
Humidity: 73%
Barometer: 30.23 inHg , 1023.7 hPa
Clouds: Clear
Visibility: 10 miles , 16 km
2021/10/28 01:47 KRHV 280147Z 32005KT 10SM SKC 19/14 A3023
 
KSJC - San Jose, California, USA
Distance from station: SW 166mi, 267km
Updated: Wed, 27-Oct-2021 6:53pm PDT
Few Clouds
Few Clouds
 Wind from NW
Wind: NW 8 mph , 13 km/h
Temperature: 68°F , 20°C
Dew Point: 57°F , 14°C
Humidity: 69%
Barometer: 30.22 inHg , 1023.4 hPa
Clouds: Few Clouds
Visibility: 10 miles , 16 km
Cloud details: Few Clouds 3200 ft
2021/10/28 01:53 KSJC 280153Z 32007KT 10SM FEW032 20/14 A3022 RMK AO2 SLP233 T02000144
KE16 - San Martin, California, USA
Distance from station: SW 169mi, 273km
Updated: Wed, 27-Oct-2021 6:35pm PDT
Clear
Clear
 Wind from NNW
Wind: NNW 12 mph , 19 km/h, Gust: 16 mph , 26 km/h
Temperature: 68°F , 20°C
Dew Point: 57°F , 14°C
Humidity: 69%
Barometer: 30.22 inHg , 1023.4 hPa
Clouds: Clear
Visibility: 10 miles , 16 km
2021/10/28 01:35 KE16 280135Z AUTO 33010G14KT 10SM CLR 20/14 A3022 RMK AO2 PWINO PNO
 
KPAO - Palo Alto, California, USA
Distance from station: SW 169mi, 273km
Updated: Wed, 27-Oct-2021 6:47pm PDT
Clear
Clear
 Wind from WNW
Wind: WNW 12 mph , 19 km/h
Temperature: 66°F , 19°C
Dew Point: 57°F , 14°C
Humidity: 73%
Barometer: 30.23 inHg , 1023.7 hPa
Clouds: Clear
Visibility: 10 miles , 16 km
2021/10/28 01:47 KPAO 280147Z 30010KT 10SM SKC 19/14 A3023
KNUQ - Moffett Nas/Mtn, California, USA
Distance from station: SW 170mi, 273km
Updated: Wed, 27-Oct-2021 6:35pm PDT
Haze, Clear
Haze, Clear
 Wind from WNW
Wind: WNW 8 mph , 13 km/h
Temperature: 68°F , 20°C
Dew Point: 59°F , 15°C
Humidity: 73%
Barometer: 30.22 inHg , 1023.4 hPa
Summary: Haze
Clouds: Clear
Visibility: 3 miles , 5 km
2021/10/28 01:35 KNUQ 280135Z AUTO 30007KT 3SM HZ CLR 20/15 A3022 RMK AO2
 
KRDD - Redding, California, USA
Distance from station: NW 171mi, 275km
Updated: Wed, 27-Oct-2021 6:53pm PDT
Clear
Clear
 Wind from NNW
Wind: NNW 5 mph , 7 km/h
Temperature: 63°F , 17°C
Dew Point: 54°F , 12°C
Humidity: 73%
Barometer: 30.28 inHg , 1025.4 hPa
Clouds: Clear
Visibility: 10 miles , 16 km
2021/10/28 01:53 KRDD 280153Z 34004KT 10SM CLR 17/12 A3028 RMK AO2 SLP251 T01720122
KSTS - Santa Rosa, California, USA
Distance from station: WSW 171mi, 275km
Updated: Wed, 27-Oct-2021 6:53pm PDT
Clear
Clear
 Wind from calm
Wind: Calm
Temperature: 64°F , 18°C
Dew Point: 61°F , 16°C
Humidity: 88%
Barometer: 30.24 inHg , 1024 hPa
Clouds: Clear
Visibility: 10 miles , 16 km
2021/10/28 01:53 KSTS 280153Z 00000KT 10SM CLR 18/16 A3024 RMK AO2 SLP234 T01830161
 
KSQL - San Carlos Airpo, California, USA
Distance from station: SW 173mi, 278km
Updated: Wed, 27-Oct-2021 6:47pm PDT
Clear
Clear
 Wind from WNW
Wind: WNW 12 mph , 19 km/h
Temperature: 68°F , 20°C
Dew Point: 59°F , 15°C
Humidity: 73%
Barometer: 30.24 inHg , 1024 hPa
Clouds: Clear
Visibility: 10 miles , 16 km
2021/10/28 01:47 KSQL 280147Z 30010KT 10SM CLR 20/15 A3024
KCVH - Hollister Muni, California, USA
Distance from station: SSW 174mi, 280km
Updated: Wed, 27-Oct-2021 6:35pm PDT
Clear
Clear
 Wind from NNW
Wind: NNW 13 mph , 20 km/h
Temperature: 68°F , 20°C
Dew Point: 57°F , 14°C
Humidity: 69%
Barometer: 30.22 inHg , 1023.4 hPa
Clouds: Clear
Visibility: 10 miles , 16 km
2021/10/28 01:35 KCVH 280135Z AUTO 33011KT 10SM CLR 20/14 A3022 RMK A01 P0009
 
KSFO - San Francisco, California, USA
Distance from station: SW 174mi, 280km
Updated: Wed, 27-Oct-2021 5:56pm PDT
Few Clouds
Few Clouds
 Wind from WNW
Wind: WNW 15 mph , 24 km/h
Temperature: 64°F , 18°C
Dew Point: 57°F , 14°C
Humidity: 78%
Barometer: 30.23 inHg , 1023.7 hPa
Clouds: Few Clouds
Visibility: 10 miles , 16 km
Cloud details: Few Clouds 400 ft
2021/10/28 00:56 KSFO 280056Z 29013KT 10SM FEW004 18/14 A3023 RMK AO2 SLP236 T01780144
KAAT - Alturas, California, USA
Distance from station: NNW 175mi, 281km
Updated: Wed, 27-Oct-2021 5:55pm PDT
Overcast
Overcast
 Wind from W
Wind: W 5 mph , 7 km/h
Temperature: 54°F , 12°C
Dew Point: 45°F , 7°C
Humidity: 72%
Barometer: 30.38 inHg , 1028.8 hPa
Clouds: Overcast
Visibility: 10 miles , 16 km
Cloud details: Overcast 3800 ft
2021/10/28 00:55 KAAT 280055Z AUTO 28004KT 10SM OVC038 12/07 A3038 RMK AO2 SLP278 T01170072
 
KBAM - Battle Mtn (vor), Nevada, USA
Distance from station: NE 182mi, 294km
Updated: Wed, 27-Oct-2021 6:35pm PDT
Clear
Clear
 Wind from W
Wind: W 7 mph , 11 km/h
Temperature: 54°F , 12°C
Dew Point: 41°F , 5°C
Humidity: 63%
Barometer: 30.36 inHg , 1028.1 hPa
Clouds: Clear
Visibility: 10 miles , 16 km
2021/10/28 01:35 KBAM 280135Z AUTO 27006KT 10SM CLR 12/05 A3036 RMK AO1
KHAF - Half Moon Bay, California, USA
Distance from station: SW 184mi, 296km
Updated: Wed, 27-Oct-2021 6:35pm PDT
Mist, Clear
Mist, Clear
 Wind from NNW
Wind: NNW 12 mph , 19 km/h
Temperature: 59°F , 15°C
Dew Point: 59°F , 15°C
Humidity: 100%
Barometer: 30.24 inHg , 1024 hPa
Summary: Mist
Clouds: Clear
Visibility: 5 miles , 8 km
2021/10/28 01:35 KHAF 280135Z AUTO 34010KT 5SM BR CLR 15/15 A3024 RMK AO2
 
KWVI - Watsonville, California, USA
Distance from station: SW 184mi, 296km
Updated: Wed, 27-Oct-2021 6:53pm PDT
Clear
Clear
 Wind from calm
Wind: Calm
Temperature: 61°F , 16°C
Dew Point: 57°F , 14°C
Humidity: 88%
Barometer: 30.21 inHg , 1023 hPa
Clouds: Clear
Visibility: 10 miles , 16 km
2021/10/28 01:53 KWVI 280153Z AUTO 00000KT 10SM CLR 16/14 A3021 RMK AO2 SLP230 T01610144
KUKI - Ukiah, California, USA
Distance from station: W 187mi, 300km
Updated: Wed, 27-Oct-2021 5:56pm PDT
Clear
Clear
 Wind from calm
Wind: Calm
Temperature: 68°F , 20°C
Dew Point: 57°F , 14°C
Humidity: 69%
Barometer: 30.26 inHg , 1024.7 hPa
Clouds: Clear
Visibility: 10 miles , 16 km
2021/10/28 00:56 KUKI 280056Z AUTO 00000KT 10SM CLR 20/14 A3026 RMK AO2 SLP242 T02000144
 
KHJO - Hanford, California, USA
Distance from station: S 188mi, 303km
Updated: Wed, 27-Oct-2021 6:53pm PDT
Clear
Clear
 Wind from calm
Wind: Calm
Temperature: 59°F , 15°C
Dew Point: 55°F , 13°C
Humidity: 88%
Barometer: 30.24 inHg , 1024 hPa
Clouds: Clear
Visibility: 9 miles , 14 km
2021/10/28 01:53 KHJO 280153Z AUTO 00000KT 9SM CLR 15/13 A3024 RMK AO2 SLP241 T01500128
KNLC - Lemoore Nas/Reev, California, USA
Distance from station: S 188mi, 303km
Updated: Wed, 27-Oct-2021 5:56pm PDT
Few Clouds
Few Clouds
 Wind from NNE
Wind: NNE 7 mph , 11 km/h
Temperature: 66°F , 19°C
Dew Point: 54°F , 12°C
Humidity: 64%
Barometer: 30.23 inHg , 1023.7 hPa
Clouds: Few Clouds
Visibility: 10 miles , 16 km
Cloud details: Few Clouds 4300 ft
2021/10/28 00:56 KNLC 280056Z 02006KT 10SM FEW043 19/12 A3023 RMK AO2 SLP237 RH/58 T01940117
 
KVIS - Visalia Muni, California, USA
Distance from station: S 189mi, 304km
Updated: Wed, 27-Oct-2021 5:56pm PDT
Clear
Clear
 Wind from calm
Wind: Calm
Temperature: 64°F , 18°C
Dew Point: 54°F , 12°C
Humidity: 68%
Barometer: 30.24 inHg , 1024 hPa
Clouds: Clear
Visibility: 10 miles , 16 km
2021/10/28 00:56 KVIS 280056Z AUTO 00000KT 10SM CLR 18/12 A3024 RMK AO2 SLP248 T01830122
KSNS - Salinas, California, USA
Distance from station: SSW 193mi, 311km
Updated: Wed, 27-Oct-2021 6:53pm PDT
Clear
Clear
 Wind from NNW
Wind: NNW 6 mph , 9 km/h
Temperature: 64°F , 18°C
Dew Point: 57°F , 14°C
Humidity: 78%
Barometer: 30.21 inHg , 1023 hPa
Clouds: Clear
Visibility: 10 miles , 16 km
2021/10/28 01:53 KSNS 280153Z AUTO 33005KT 10SM CLR 18/14 A3021 RMK AO2 SLP237 T01780144
 
K05U - Eureka, Nevada, USA
Distance from station: ENE 203mi, 326km
Updated: Wed, 27-Oct-2021 6:35pm PDT

 Wind from WNW
Wind: WNW 5 mph , 7 km/h
Temperature: 46°F , 8°C
Wind Chill: 44°F , 7°C
Dew Point: 37°F , 3°C
Humidity: 71%
Barometer: 30.41 inHg , 1029.8 hPa
Visibility: 10 miles , 16 km
2021/10/28 01:35 K05U 280135Z AUTO 30004KT 10SM 08/03 A3041 RMK A01
KP68 - Eureka, Nevada, USA
Distance from station: ENE 203mi, 326km
Updated: Wed, 27-Oct-2021 6:53pm PDT

 Wind from NW
Wind: NW 7 mph , 11 km/h
Temperature: 46°F , 8°C
Wind Chill: 42°F , 6°C
Dew Point: 37°F , 3°C
Humidity: 71%
Barometer: 30.39 inHg , 1029.1 hPa
2021/10/28 01:53 KP68 280153Z AUTO 31006KT 08/03 A3039 RMK AO1 SLP275 T00780028
 
KMRY - Monterey, California, USA
Distance from station: SW 206mi, 331km
Updated: Wed, 27-Oct-2021 5:54pm PDT
Clear
Clear
 Wind from calm
Wind: Calm
Temperature: 64°F , 18°C
Dew Point: 57°F , 14°C
Humidity: 78%
Barometer: 30.22 inHg , 1023.4 hPa
Clouds: Clear
Visibility: 10 miles , 16 km
2021/10/28 00:54 KMRY 280054Z 00000KT 10SM CLR 18/14 A3022 RMK AO2 SLP244 T01830144
KO54 - Weaverville, California, USA
Distance from station: NW 207mi, 332km
Updated: Wed, 12-Aug-2020 11:15am PDT
NOT Current
Clear
Clear
 Wind from S
Wind: S 3 mph , 6 km/h
Temperature: 77°F , 25°C
Dew Point: 41°F , 5°C
Humidity: 28%
Barometer: 30.01 inHg , 1016.3 hPa
Clouds: Clear
Visibility: 10 miles , 16 km
2020/08/12 18:15 KO54 121815Z AUTO 17003KT 10SM CLR 25/05 A3001 RMK AO1
 
KO86 - Trinity Center, California, USA
Distance from station: NW 207mi, 333km
Updated: Wed, 27-Oct-2021 6:30pm PDT
Overcast
Overcast
 Wind from W
Wind: W 3 mph , 6 km/h
Temperature: 55°F , 13°C
Dew Point: 52°F , 11°C
Humidity: 88%
Barometer: 30.36 inHg , 1028.1 hPa
Clouds: Overcast
Visibility: 10 miles , 16 km
Cloud details: Overcast 1900 ft
2021/10/28 01:30 KO86 280130Z AUTO 27003KT 10SM OVC019 13/11 A3036 RMK AO1
KMHS - Mount Shasta, California, USA
Distance from station: NW 209mi, 336km
Updated: Wed, 27-Oct-2021 6:42pm PDT
Overcast
Overcast
 Wind from calm
Wind: Calm
Temperature: 50°F , 10°C
Dew Point: 46°F , 8°C
Humidity: 88%
Barometer: 30.38 inHg , 1028.8 hPa
Clouds: Overcast
Visibility: 10 miles , 16 km
Cloud details: Overcast 900 ft
2021/10/28 01:42 KMHS 280142Z AUTO 00000KT 10SM OVC009 10/08 A3038 RMK AO2 T01000078
 
KPTV - Porterville, California, USA
Distance from station: S 212mi, 341km
Updated: Wed, 27-Oct-2021 5:56pm PDT
Clear
Clear
 Wind from W
Wind: W 5 mph , 7 km/h
Temperature: 64°F , 18°C
Dew Point: 52°F , 11°C
Humidity: 64%
Barometer: 30.24 inHg , 1024 hPa
Clouds: Clear
Visibility: 10 miles , 16 km
2021/10/28 00:56 KPTV 280056Z AUTO 28004KT 10SM CLR 18/11 A3024 RMK AO2 SLP241 T01830111
KLKV - Lakeview, Oregon, USA
Distance from station: N 219mi, 353km
Updated: Wed, 27-Oct-2021 6:53pm PDT
Few Clouds
Few Clouds
 Wind from S
Wind: S 9 mph , 15 km/h
Temperature: 48°F , 9°C
Wind Chill: 44°F , 7°C
Dew Point: 45°F , 7°C
Humidity: 87%
Barometer: 30.39 inHg , 1029.1 hPa
Clouds: Few Clouds
Visibility: 10 miles , 16 km
Cloud details: Few Clouds 4000 ft
2021/10/28 01:53 KLKV 280153Z AUTO 17008KT 10SM FEW040 09/07 A3039 RMK AO2 SLP295 T00890072
 
KSIY - Montague/Siskiyo, California, USA
Distance from station: NW 237mi, 382km
Updated: Wed, 27-Oct-2021 6:53pm PDT
Overcast
Overcast
 Wind from calm
Wind: Calm
Temperature: 59°F , 15°C
Dew Point: 48°F , 9°C
Humidity: 68%
Barometer: 30.35 inHg , 1027.8 hPa
Clouds: Overcast
Visibility: 10 miles , 16 km
Cloud details: Overcast 5000 ft
2021/10/28 01:53 KSIY 280153Z AUTO 00000KT 10SM OVC050 15/09 A3035 RMK AO2 SLP282 T01500094
KPRB - Paso Robles, California, USA
Distance from station: SSW 238mi, 383km
Updated: Wed, 27-Oct-2021 6:53pm PDT
Clear
Clear
 Wind from E
Wind: E 10 mph , 17 km/h
Temperature: 64°F , 18°C
Dew Point: 52°F , 11°C
Humidity: 64%
Barometer: 30.20 inHg , 1022.7 hPa
Clouds: Clear
Visibility: 10 miles , 16 km
2021/10/28 01:53 KPRB 280153Z AUTO 10009KT 10SM CLR 18/11 A3020 RMK AO2 SLP224 T01830106
 
KLMT - Klamath Falls, Oregon, USA
Distance from station: NNW 239mi, 385km
Updated: Wed, 27-Oct-2021 6:53pm PDT
Overcast
Overcast
 Wind from W
Wind: W 6 mph , 9 km/h
Temperature: 54°F , 12°C
Dew Point: 46°F , 8°C
Humidity: 77%
Barometer: 30.36 inHg , 1028.1 hPa
Clouds: Overcast
Visibility: 10 miles , 16 km
Cloud details: Overcast 3200 ft
2021/10/28 01:53 KLMT 280153Z 27005KT 10SM OVC032 12/08 A3036 RMK AO2 SLP269 T01220078 $
KEKO - Elko, Nevada, USA
Distance from station: ENE 242mi, 390km
Updated: Wed, 27-Oct-2021 5:56pm PDT
Clear
Clear
 Wind from SSW
Wind: SSW 6 mph , 9 km/h
Temperature: 54°F , 12°C
Dew Point: 36°F , 2°C
Humidity: 51%
Barometer: 30.35 inHg , 1027.8 hPa
Clouds: Clear
Visibility: 10 miles , 16 km
2021/10/28 00:56 KEKO 280056Z AUTO 20005KT 10SM CLR 12/02 A3035 RMK AO2 SLP265 T01170022
 
KBFL - Bakersfield, California, USA
Distance from station: S 252mi, 405km
Updated: Wed, 27-Oct-2021 5:54pm PDT
Haze, Clear
Haze, Clear
 Wind from NW
Wind: NW 7 mph , 11 km/h
Temperature: 66°F , 19°C
Dew Point: 48°F , 9°C
Humidity: 52%
Barometer: 30.22 inHg , 1023.4 hPa
Summary: Haze
Clouds: Clear
Visibility: 6 miles , 10 km
2021/10/28 00:54 KBFL 280054Z 32006KT 6SM HZ CLR 19/09 A3022 RMK AO2 SLP231 T01940094
KFOT - Fortuna, California, USA
Distance from station: WNW 256mi, 413km
Updated: Wed, 27-Oct-2021 6:35pm PDT
Clear
Clear
 Wind from WNW
Wind: WNW 6 mph , 9 km/h
Temperature: 57°F , 14°C
Dew Point: 57°F , 14°C
Humidity: 100%
Barometer: 30.32 inHg , 1026.8 hPa
Clouds: Clear
Visibility: 10 miles , 16 km
2021/10/28 01:35 KFOT 280135Z AUTO 30005KT 10SM CLR 14/14 A3032 RMK AO1
 
KNID - China Lake (naf), California, USA
Distance from station: SSE 259mi, 417km
Updated: Wed, 27-Oct-2021 5:56pm PDT
Clear
Clear
 Wind from ENE
Wind: ENE 5 mph , 7 km/h
Temperature: 73°F , 23°C
Dew Point: 34°F , 1°C
Humidity: 23%
Barometer: 30.19 inHg , 1022.4 hPa
Clouds: Clear
Visibility: 10 miles , 16 km
2021/10/28 00:56 KNID 280056Z 06004KT 10SM CLR 23/01 A3019 RMK AO2 SLP220 T02280011 $
KDRA - Desert R/Mercury, Nevada, USA
Distance from station: SE 262mi, 421km
Updated: Wed, 27-Oct-2021 6:53pm PDT
Clear
Clear
 Wind from E
Wind: E 3 mph , 6 km/h
Temperature: 63°F , 17°C
Dew Point: 45°F , 7°C
Humidity: 52%
Barometer: 30.23 inHg , 1023.7 hPa
Clouds: Clear
Visibility: 10 miles , 16 km
2021/10/28 01:53 KDRA 280153Z AUTO 09003KT 10SM CLR 17/07 A3023 RMK AO2 SLP216 T01720067
 
KELY - Ely, Nevada, USA
Distance from station: E 262mi, 421km
Updated: Wed, 27-Oct-2021 6:53pm PDT
Clear
Clear
 Wind from NW
Wind: NW 7 mph , 11 km/h
Temperature: 43°F , 6°C
Wind Chill: 39°F , 4°C
Dew Point: 36°F , 2°C
Humidity: 76%
Barometer: 30.39 inHg , 1029.1 hPa
Clouds: Clear
Visibility: 10 miles , 16 km
2021/10/28 01:53 KELY 280153Z AUTO 32006KT 10SM CLR 06/02 A3039 RMK AO2 SLP280 T00560022
KREO - Rome, Oregon, USA
Distance from station: NNE 263mi, 424km
Updated: Wed, 27-Oct-2021 6:52pm PDT

 Wind from SSW
Wind: SSW 5 mph , 7 km/h
Temperature: 54°F , 12°C
Dew Point: 36°F , 2°C
Humidity: 51%
Barometer: 30.29 inHg , 1025.7 hPa
2021/10/28 01:52 KREO 280152Z AUTO 20004KT 12/02 A3029 RMK AO1 SLP250 T01170022
 
KACV - Arcata/Eureka, California, USA
Distance from station: WNW 268mi, 431km
Updated: Wed, 27-Oct-2021 6:53pm PDT
Clear
Clear
 Wind from calm
Wind: Calm
Temperature: 57°F , 14°C
Dew Point: 55°F , 13°C
Humidity: 94%
Barometer: 30.32 inHg , 1026.8 hPa
Clouds: Clear
Visibility: 9 miles , 14 km
2021/10/28 01:53 KACV 280153Z AUTO 00000KT 9SM CLR 14/13 A3032 RMK AO2 SLP271 T01390128
KSBP - San Luis Obispo, California, USA
Distance from station: S 268mi, 431km
Updated: Wed, 27-Oct-2021 5:56pm PDT
Clear
Clear
 Wind from WNW
Wind: WNW 8 mph , 13 km/h
Temperature: 73°F , 23°C
Dew Point: 50°F , 10°C
Humidity: 44%
Barometer: 30.15 inHg , 1021 hPa
Clouds: Clear
Visibility: 10 miles , 16 km
2021/10/28 00:56 KSBP 280056Z 30007KT 10SM CLR 23/10 A3015 RMK AO2 SLP207 T02280100
 
KINS - Indian Springs, Nevada, USA
Distance from station: SE 279mi, 449km
Updated: Wed, 27-Oct-2021 5:58pm PDT
Clear
Clear
 Wind from WSW
Wind: WSW 6 mph , 9 km/h
Temperature: 70°F , 21°C
Dew Point: 37°F , 3°C
Humidity: 31%
Barometer: 30.21 inHg , 1023 hPa
Clouds: Clear
Visibility: 10 miles , 16 km
2021/10/28 00:58 KINS 280058Z AUTO 24005KT 10SM CLR 21/03 A3021 RMK AO2 SLP207 T02080030 $
KTSP - Tehachapi, California, USA
Distance from station: SSE 279mi, 449km
Updated: Wed, 27-Oct-2021 6:35pm PDT

 
2021/10/28 01:35 KTSP 280135Z AUTO RMK AO2 PNO PWINO FZRANO TSNO
 
KMFR - Medford, Oregon, USA
Distance from station: NW 284mi, 457km
Updated: Wed, 27-Oct-2021 6:53pm PDT
Overcast
Overcast
 Wind from calm
Wind: Calm
Temperature: 63°F , 17°C
Dew Point: 52°F , 11°C
Humidity: 68%
Barometer: 30.31 inHg , 1026.4 hPa
Clouds: Overcast
Visibility: 10 miles , 16 km
Cloud details: Overcast 4900 ft
2021/10/28 01:53 KMFR 280153Z 00000KT 10SM OVC049 17/11 A3031 RMK AO2 SLP263 T01670111
KMHV - Mojave, California, USA
Distance from station: SSE 288mi, 463km
Updated: Wed, 27-Oct-2021 6:20pm PDT
Clear
Clear
 Wind from SSE
Wind: SSE 3 mph , 6 km/h
Temperature: 68°F , 20°C
Dew Point: 37°F , 3°C
Humidity: 33%
Barometer: 30.23 inHg , 1023.7 hPa
Clouds: Clear
Visibility: 10 miles , 16 km
2021/10/28 01:20 KMHV 280120Z AUTO 15003KT 10SM CLR 20/03 A3023 RMK A01
 
KSMX - Santa Maria, California, USA
Distance from station: S 289mi, 465km
Updated: Wed, 27-Oct-2021 6:51pm PDT
Clear
Clear
 Wind from N
Wind: N 10 mph , 17 km/h
Temperature: 72°F , 22°C
Dew Point: 48°F , 9°C
Humidity: 44%
Barometer: 30.15 inHg , 1021 hPa
Clouds: Clear
Visibility: 10 miles , 16 km
2021/10/28 01:51 KSMX 280151Z 01009KT 10SM CLR 22/09 A3015 RMK AO2 SLP210 T02170094
K9L2 - Edwards N-Aux, California, USA
Distance from station: SSE 299mi, 482km
Updated: Wed, 27-Oct-2021 5:58pm PDT
Haze, Clear
Haze, Clear
 Wind from calm
Wind: Calm
Temperature: 70°F , 21°C
Dew Point: 34°F , 1°C
Humidity: 27%
Barometer: 30.20 inHg , 1022.7 hPa
Summary: Haze
Clouds: Clear
Visibility: 4 miles , 6 km
2021/10/28 00:58 K9L2 280058Z AUTO 00000KT 4SM HZ CLR 21/01 A3020 RMK AO2 SLP222 T02100008 $
Honor Flight NV - Honoring all of our Veterans CoCoRaHS (Community Collaborative Rain, Hail and Snow Network) Station Number: NV-DG-2 Live Lightning Map - USA Reno Skywarn Spotter ID: DO21 AlertID Southwestern Weather Network Carson Valley Community Food Closet - providing for the needs of our community



Do you have a Teacher in the family or are a teacher yourself?
Check out this new website for the Teacher Community.
(Click on the logo below)
Teacher 
		  Times Two Designs - providing  teacher tees & accessories for the teaching community

(Click on the Flag Counter logo below for details in new browser tab)
Flag Counter